Time;durP1;ratioP1;P1;durP2;ratioP2;P2;SDS_P1;SDS_P2;PMS_P1;PMS_P2;Temp;Humidity;BMP_temperature;BMP_pressure;BME280_temperature;BME280_humidity;BME280_pressure;Samples;Min_cycle;Max_cycle;Signal;HPM_P1;HPM_P2
2023/10/03 00:01:52;;;;;;;0.50;0.50;;;16.60;99.90;;;;;;5057807;28;20063;-74
2023/10/03 00:04:19;;;;;;;2.45;0.77;;;16.50;99.90;;;;;;5059997;28;20052;-72
2023/10/03 00:06:46;;;;;;;0.40;0.40;;;16.50;99.90;;;;;;5056751;28;20410;-72
2023/10/03 00:09:12;;;;;;;0.57;0.57;;;16.50;99.90;;;;;;5046949;28;20102;-72
2023/10/03 00:11:38;;;;;;;2.47;1.40;;;16.50;99.90;;;;;;5061851;28;20035;-72
2023/10/03 00:14:07;;;;;;;0.50;0.50;;;16.40;99.90;;;;;;5054310;28;20123;-72
2023/10/03 00:16:34;;;;;;;1.17;1.08;;;16.40;99.90;;;;;;5082254;28;20039;-72
2023/10/03 00:19:00;;;;;;;0.40;0.40;;;16.40;99.90;;;;;;5069266;28;20044;-72
2023/10/03 00:21:25;;;;;;;0.65;0.65;;;16.40;99.90;;;;;;5061131;28;20043;-72
2023/10/03 00:23:51;;;;;;;0.45;0.45;;;16.40;99.90;;;;;;5066293;28;20118;-72
2023/10/03 00:26:17;;;;;;;0.40;0.40;;;16.30;99.90;;;;;;5067706;28;20406;-72
2023/10/03 00:28:44;;;;;;;1.83;1.45;;;16.40;99.90;;;;;;5061970;28;20052;-72
2023/10/03 00:31:13;;;;;;;1.02;0.80;;;16.40;99.90;;;;;;5065053;28;20049;-72
2023/10/03 00:33:41;;;;;;;10.07;1.23;;;16.40;99.90;;;;;;5059823;28;20063;-73
2023/10/03 00:36:24;;;;;;;0.30;0.30;;;16.40;99.90;;;;;;5061014;28;20127;-72
2023/10/03 00:38:50;;;;;;;0.63;0.63;;;16.40;99.90;;;;;;5040784;28;20505;-72
2023/10/03 00:41:19;;;;;;;0.90;0.88;;;16.40;99.90;;;;;;5062325;28;20032;-72
2023/10/03 00:44:04;;;;;;;0.63;0.55;;;16.40;99.90;;;;;;5068551;28;20039;-72
2023/10/03 00:46:33;;;;;;;0.40;0.40;;;16.40;99.90;;;;;;5058536;28;20405;-72
2023/10/03 00:49:08;;;;;;;0.60;0.60;;;16.40;99.90;;;;;;5067190;28;20044;-71
2023/10/03 00:51:35;;;;;;;3.00;2.05;;;16.40;99.90;;;;;;5061764;28;20044;-72
2023/10/03 00:54:02;;;;;;;0.30;0.30;;;16.40;99.90;;;;;;5069249;28;20476;-72
2023/10/03 00:56:30;;;;;;;1.65;0.88;;;16.30;99.90;;;;;;5069979;28;20043;-71
2023/10/03 00:58:57;;;;;;;1.20;1.20;;;16.30;99.90;;;;;;5059197;28;20032;-72
2023/10/03 01:01:27;;;;;;;0.95;0.95;;;16.30;99.90;;;;;;5067971;28;20056;-72
2023/10/03 01:03:55;;;;;;;1.00;1.00;;;16.30;99.90;;;;;;5065838;28;20036;-72
2023/10/03 01:06:21;;;;;;;0.73;0.73;;;16.20;99.90;;;;;;5068712;28;20115;-72
2023/10/03 01:08:51;;;;;;;0.93;0.93;;;16.20;99.90;;;;;;5071474;28;20123;-72
2023/10/03 01:11:18;;;;;;;0.60;0.60;;;16.20;99.90;;;;;;5061168;28;20386;-72
2023/10/03 01:13:56;;;;;;;2.30;2.05;;;16.20;99.90;;;;;;5066123;28;20940;-72
2023/10/03 01:16:44;;;;;;;0.40;0.40;;;16.20;99.90;;;;;;5063232;28;20063;-72
2023/10/03 01:19:10;;;;;;;0.60;0.60;;;16.10;99.90;;;;;;5072805;28;20042;-72
2023/10/03 01:21:37;;;;;;;1.05;1.05;;;16.10;99.90;;;;;;5078035;28;20124;-72
2023/10/03 01:24:07;;;;;;;3.20;1.25;;;16.10;99.90;;;;;;5059409;28;20123;-72
2023/10/03 01:26:32;;;;;;;1.48;1.38;;;16.20;99.90;;;;;;5067098;28;20041;-72
2023/10/03 01:28:59;;;;;;;0.88;0.88;;;16.20;99.90;;;;;;5067136;28;20030;-72
2023/10/03 01:31:25;;;;;;;0.40;0.40;;;16.20;99.90;;;;;;5063681;28;20057;-72
2023/10/03 01:33:50;;;;;;;3.28;1.35;;;16.20;99.90;;;;;;5068691;28;20038;-72
2023/10/03 01:36:18;;;;;;;1.55;1.45;;;16.20;99.90;;;;;;5064512;28;20060;-72
2023/10/03 01:38:45;;;;;;;1.30;1.20;;;16.30;99.90;;;;;;5058873;28;20048;-72
2023/10/03 01:41:12;;;;;;;1.10;1.10;;;16.30;99.90;;;;;;5059732;28;20051;-72
2023/10/03 01:43:43;;;;;;;3.10;1.70;;;16.40;99.90;;;;;;5063924;28;20468;-72
2023/10/03 01:46:09;;;;;;;1.75;1.38;;;16.40;99.90;;;;;;5061770;28;20450;-72
2023/10/03 01:48:36;;;;;;;2.10;2.00;;;16.50;99.90;;;;;;5059408;28;20066;-72
2023/10/03 01:51:02;;;;;;;2.80;2.50;;;16.60;99.90;;;;;;5049435;28;20413;-72
2023/10/03 01:53:29;;;;;;;1.70;1.52;;;16.70;99.90;;;;;;5065034;28;20719;-72
2023/10/03 01:55:56;;;;;;;1.30;1.20;;;16.70;99.90;;;;;;5064613;28;20095;-72
2023/10/03 01:58:23;;;;;;;0.82;0.82;;;16.80;99.90;;;;;;5053634;28;20127;-72
2023/10/03 02:00:50;;;;;;;2.20;1.27;;;16.80;99.90;;;;;;5056120;28;20063;-72
2023/10/03 02:03:18;;;;;;;1.43;1.33;;;16.80;99.90;;;;;;5061755;28;20071;-72
2023/10/03 02:05:45;;;;;;;;;;;16.80;99.90;;;;;;5060388;28;20376;-72
2023/10/03 02:08:19;;;;;;;2.88;2.33;;;16.80;99.90;;;;;;5060611;28;19919;-72
2023/10/03 02:10:47;;;;;;;2.65;2.45;;;16.90;99.90;;;;;;5064656;28;20133;-72
2023/10/03 02:13:17;;;;;;;2.17;1.90;;;16.90;99.90;;;;;;5061266;28;20033;-72
2023/10/03 02:15:44;;;;;;;1.02;1.02;;;16.90;99.90;;;;;;5066023;28;20295;-71
2023/10/03 02:18:12;;;;;;;2.45;1.45;;;16.90;99.90;;;;;;5060675;28;20124;-72
2023/10/03 02:20:47;;;;;;;1.60;1.05;;;16.90;99.90;;;;;;5065089;28;20097;-71
2023/10/03 02:23:20;;;;;;;0.63;0.63;;;16.90;99.90;;;;;;5062502;28;20059;-72
2023/10/03 02:25:48;;;;;;;1.88;1.77;;;16.90;99.90;;;;;;5056528;28;20039;-71
2023/10/03 02:28:15;;;;;;;0.95;0.95;;;16.90;99.90;;;;;;5045321;28;20397;-72
2023/10/03 02:30:42;;;;;;;1.95;1.73;;;16.90;99.90;;;;;;5068960;28;20497;-71
2023/10/03 02:33:12;;;;;;;1.30;1.30;;;16.90;99.90;;;;;;5049469;28;20540;-72
2023/10/03 02:35:42;;;;;;;1.92;1.83;;;17.00;99.90;;;;;;5065655;28;20552;-72
2023/10/03 02:38:10;;;;;;;3.00;1.60;;;17.00;99.90;;;;;;5067287;28;20044;-72
2023/10/03 02:40:36;;;;;;;5.07;1.77;;;17.00;99.90;;;;;;5066016;28;20044;-72
2023/10/03 02:43:02;;;;;;;4.78;1.45;;;17.00;99.90;;;;;;5052897;28;20045;-72
2023/10/03 02:45:28;;;;;;;1.83;1.73;;;17.00;99.90;;;;;;5067348;28;20042;-72
2023/10/03 02:48:14;;;;;;;2.42;2.22;;;17.00;99.90;;;;;;5065699;28;20036;-73
2023/10/03 02:50:47;;;;;;;2.40;1.77;;;17.00;99.90;;;;;;5066040;28;20040;-71
2023/10/03 02:53:23;;;;;;;2.60;1.58;;;17.00;99.90;;;;;;5062068;28;20024;-72
2023/10/03 02:55:51;;;;;;;1.52;1.42;;;17.00;99.90;;;;;;5056441;28;20079;-72
2023/10/03 02:58:19;;;;;;;0.60;0.60;;;17.00;99.90;;;;;;5060431;28;20044;-71
2023/10/03 03:00:49;;;;;;;0.40;0.40;;;17.00;99.90;;;;;;5060344;28;20116;-72
2023/10/03 03:03:15;;;;;;;1.60;1.50;;;17.00;99.90;;;;;;5065272;28;20055;-72
2023/10/03 03:05:43;;;;;;;1.10;1.00;;;17.00;99.90;;;;;;5053185;28;20035;-72
2023/10/03 03:08:28;;;;;;;1.38;1.38;;;17.00;99.90;;;;;;5061171;28;20044;-73
2023/10/03 03:10:57;;;;;;;1.15;1.15;;;17.00;99.90;;;;;;5064162;28;20140;-73
2023/10/03 03:13:28;;;;;;;2.08;1.98;;;17.00;99.90;;;;;;5066321;28;20171;-73
2023/10/03 03:16:01;;;;;;;1.60;1.50;;;17.00;99.90;;;;;;5065541;28;20031;-73
2023/10/03 03:18:40;;;;;;;1.25;1.25;;;17.00;99.90;;;;;;5061770;28;20047;-73
2023/10/03 03:21:13;;;;;;;3.70;1.40;;;17.10;99.90;;;;;;5064069;28;20409;-73
2023/10/03 03:23:42;;;;;;;1.48;1.17;;;17.10;99.90;;;;;;5060463;28;20074;-73
2023/10/03 03:26:17;;;;;;;2.75;2.30;;;17.10;99.90;;;;;;5054418;28;20409;-73
2023/10/03 03:28:46;;;;;;;3.63;1.40;;;17.10;99.90;;;;;;5052668;28;20036;-73
2023/10/03 03:31:32;;;;;;;1.88;1.77;;;17.10;99.90;;;;;;5053992;28;20036;-73
2023/10/03 03:33:58;;;;;;;1.13;1.08;;;17.10;99.90;;;;;;5038181;28;20036;-73
2023/10/03 03:36:30;;;;;;;1.30;0.90;;;17.10;99.90;;;;;;5056235;28;20072;-73
2023/10/03 03:38:58;;;;;;;1.95;1.48;;;17.10;99.90;;;;;;5063169;28;20158;-71
2023/10/03 03:41:24;;;;;;;1.58;1.58;;;17.10;99.90;;;;;;5070740;28;20040;-73
2023/10/03 03:43:50;;;;;;;3.10;2.55;;;17.20;99.90;;;;;;5062397;28;20481;-73
2023/10/03 03:46:20;;;;;;;2.50;2.30;;;17.20;99.90;;;;;;5038087;28;20125;-73
2023/10/03 03:48:46;;;;;;;0.88;0.88;;;17.20;99.90;;;;;;5039606;28;20047;-73
2023/10/03 03:51:14;;;;;;;1.50;1.45;;;17.20;99.90;;;;;;5055771;28;20517;-73
2023/10/03 03:53:42;;;;;;;2.42;2.03;;;17.20;99.90;;;;;;5057412;28;20520;-73
2023/10/03 03:56:08;;;;;;;2.50;2.08;;;17.30;99.90;;;;;;5057448;28;20243;-73
2023/10/03 03:58:37;;;;;;;2.25;2.15;;;17.30;99.90;;;;;;5043124;28;20390;-73
2023/10/03 04:01:11;;;;;;;1.70;0.85;;;17.30;99.90;;;;;;5061081;28;20588;-73
2023/10/03 04:03:38;;;;;;;0.75;0.75;;;17.30;99.90;;;;;;5062144;28;20364;-73
2023/10/03 04:06:05;;;;;;;1.85;1.48;;;17.40;99.90;;;;;;5070659;28;20051;-73
2023/10/03 04:08:30;;;;;;;1.90;1.17;;;17.30;99.90;;;;;;5065575;28;20051;-73
2023/10/03 04:10:57;;;;;;;1.48;1.40;;;17.40;99.90;;;;;;5064886;28;20044;-73
2023/10/03 04:13:24;;;;;;;0.80;0.80;;;17.40;99.90;;;;;;5057465;28;20044;-73
2023/10/03 04:15:50;;;;;;;0.75;0.75;;;17.40;99.90;;;;;;5042148;28;20036;-73
2023/10/03 04:18:16;;;;;;;1.48;1.48;;;17.30;99.90;;;;;;5045577;28;20121;-73
2023/10/03 04:20:46;;;;;;;1.02;0.98;;;17.30;99.90;;;;;;5055051;28;20098;-73
2023/10/03 04:23:13;;;;;;;2.22;1.45;;;17.30;99.90;;;;;;5067414;28;20040;-73
2023/10/03 04:25:40;;;;;;;4.97;1.92;;;17.30;99.90;;;;;;5060981;28;20529;-73
2023/10/03 04:28:07;;;;;;;1.55;1.45;;;17.30;99.90;;;;;;5063221;28;20044;-73
2023/10/03 04:30:33;;;;;;;2.47;1.45;;;17.30;99.90;;;;;;5043125;28;20044;-73
2023/10/03 04:32:59;;;;;;;1.05;1.05;;;17.30;99.90;;;;;;5062350;28;20058;-72
2023/10/03 04:35:25;;;;;;;0.55;0.55;;;17.30;99.90;;;;;;5065315;28;20040;-73
2023/10/03 04:37:52;;;;;;;2.38;2.15;;;17.30;99.90;;;;;;5065914;28;20044;-73
2023/10/03 04:40:23;;;;;;;1.88;1.77;;;17.20;99.90;;;;;;5065290;28;20055;-73
2023/10/03 04:42:49;;;;;;;1.27;1.05;;;17.20;99.90;;;;;;5060113;28;20032;-73
2023/10/03 04:45:15;;;;;;;1.27;1.27;;;17.30;99.90;;;;;;5046518;28;20145;-73
2023/10/03 04:47:41;;;;;;;1.63;1.02;;;17.30;99.90;;;;;;5055952;28;20493;-72
2023/10/03 04:50:11;;;;;;;2.78;2.50;;;17.30;99.90;;;;;;5066952;28;20048;-73
2023/10/03 04:52:41;;;;;;;4.60;1.65;;;17.30;99.90;;;;;;5065788;28;20438;-73
2023/10/03 04:55:07;;;;;;;2.95;2.05;;;17.40;99.90;;;;;;5063607;28;20370;-73
2023/10/03 04:57:33;;;;;;;2.42;1.63;;;17.40;99.90;;;;;;5060866;28;20043;-73
2023/10/03 04:59:59;;;;;;;4.32;1.75;;;17.50;99.90;;;;;;5049654;28;20655;-73
2023/10/03 05:02:28;;;;;;;1.77;1.52;;;17.50;99.90;;;;;;5051356;28;20139;-72
2023/10/03 05:04:57;;;;;;;2.40;2.22;;;17.50;99.90;;;;;;5052294;28;20048;-73
2023/10/03 05:07:23;;;;;;;1.95;1.85;;;17.50;99.90;;;;;;5074266;28;20036;-73
2023/10/03 05:09:51;;;;;;;0.95;0.95;;;17.60;99.90;;;;;;5073840;28;20097;-73
2023/10/03 05:12:17;;;;;;;2.42;2.05;;;17.60;99.90;;;;;;5067356;28;20044;-73
2023/10/03 05:14:45;;;;;;;2.10;2.00;;;17.70;99.90;;;;;;5063998;28;20044;-73
2023/10/03 05:17:10;;;;;;;3.60;3.30;;;17.70;99.90;;;;;;5068107;28;20102;-73
2023/10/03 05:19:36;;;;;;;2.22;2.03;;;17.70;99.90;;;;;;5056317;28;20634;-73
2023/10/03 05:22:03;;;;;;;3.75;1.63;;;17.80;99.90;;;;;;5064805;28;20056;-73
2023/10/03 05:24:32;;;;;;;1.95;1.63;;;17.80;99.90;;;;;;5056356;28;20063;-73
2023/10/03 05:26:58;;;;;;;3.95;3.40;;;17.90;99.90;;;;;;5065208;28;20123;-73
2023/10/03 05:29:28;;;;;;;1.48;1.48;;;17.90;99.90;;;;;;5064180;28;20149;-73
2023/10/03 05:31:54;;;;;;;0.90;0.90;;;17.90;99.90;;;;;;5072221;28;20036;-73
2023/10/03 05:34:21;;;;;;;1.80;1.70;;;17.90;99.90;;;;;;5073421;28;20051;-73
2023/10/03 05:36:48;;;;;;;1.58;1.45;;;17.90;99.90;;;;;;5074639;28;20094;-73
2023/10/03 05:39:15;;;;;;;0.90;0.90;;;18.00;99.90;;;;;;5068109;28;20045;-73
2023/10/03 05:41:42;;;;;;;1.30;1.20;;;18.00;99.90;;;;;;5067697;28;20101;-73
2023/10/03 05:44:12;;;;;;;7.22;1.90;;;18.00;99.90;;;;;;5057038;28;20047;-73
2023/10/03 05:46:42;;;;;;;1.75;1.08;;;18.10;99.90;;;;;;5062572;28;20122;-73
2023/10/03 05:49:09;;;;;;;2.20;1.33;;;18.10;99.90;;;;;;5061806;28;20044;-73
2023/10/03 05:51:35;;;;;;;1.23;1.13;;;18.10;99.90;;;;;;5044651;28;20089;-73
2023/10/03 05:54:05;;;;;;;4.60;1.20;;;18.10;99.90;;;;;;5063576;28;20058;-73
2023/10/03 05:56:31;;;;;;;0.95;0.95;;;18.20;99.90;;;;;;5054066;28;20443;-73
2023/10/03 05:58:59;;;;;;;2.63;1.77;;;18.30;99.90;;;;;;5067710;28;20530;-73
2023/10/03 06:01:25;;;;;;;;;;;18.30;99.90;;;;;;5066643;28;20048;-73
2023/10/03 06:03:50;;;;;;;2.88;1.90;;;18.30;99.90;;;;;;5042479;28;19924;-73
2023/10/03 06:06:16;;;;;;;1.00;0.98;;;18.30;99.90;;;;;;5053803;28;20051;-73
2023/10/03 06:08:42;;;;;;;1.70;1.55;;;18.40;99.90;;;;;;5062545;28;20052;-73
2023/10/03 06:11:08;;;;;;;4.95;2.15;;;18.40;99.90;;;;;;5072449;28;20075;-73
2023/10/03 06:13:33;;;;;;;1.67;1.35;;;18.40;99.90;;;;;;5062564;28;20041;-73
2023/10/03 06:16:00;;;;;;;1.45;1.45;;;18.40;99.90;;;;;;5071191;28;20038;-73
2023/10/03 06:18:28;;;;;;;0.95;0.93;;;18.50;99.90;;;;;;5058866;28;20508;-73
2023/10/03 06:20:57;;;;;;;1.67;1.58;;;18.50;99.90;;;;;;5044588;28;20035;-73
2023/10/03 06:23:23;;;;;;;1.27;1.23;;;18.50;99.90;;;;;;5062967;28;20157;-73
2023/10/03 06:25:48;;;;;;;3.50;1.10;;;18.50;99.90;;;;;;5072439;28;20089;-73
2023/10/03 06:28:14;;;;;;;1.20;1.20;;;18.50;99.90;;;;;;5058991;28;20394;-75
2023/10/03 06:30:40;;;;;;;2.20;1.25;;;18.50;99.90;;;;;;5052964;28;20332;-74
2023/10/03 06:33:07;;;;;;;2.10;2.00;;;18.60;99.90;;;;;;5062187;28;20165;-72
2023/10/03 06:35:32;;;;;;;1.85;1.27;;;18.60;99.90;;;;;;5053752;28;20040;-73
2023/10/03 06:37:58;;;;;;;2.00;1.48;;;18.60;99.90;;;;;;5063737;28;20039;-73
2023/10/03 06:40:24;;;;;;;3.13;1.65;;;18.60;99.90;;;;;;5070308;28;20035;-73
2023/10/03 06:42:49;;;;;;;1.70;1.60;;;18.60;99.90;;;;;;5057305;28;20057;-73
2023/10/03 06:45:15;;;;;;;1.02;1.02;;;18.60;99.90;;;;;;5056277;28;20417;-73
2023/10/03 06:47:41;;;;;;;0.88;0.88;;;18.60;99.90;;;;;;5067015;28;20147;-73
2023/10/03 06:50:07;;;;;;;2.05;1.15;;;18.60;99.90;;;;;;5065193;28;20549;-73
2023/10/03 06:52:34;;;;;;;11.30;1.05;;;18.60;99.90;;;;;;5054564;28;20044;-73
2023/10/03 06:55:01;;;;;;;0.98;0.98;;;18.60;99.90;;;;;;5058240;28;20536;-73
2023/10/03 06:57:27;;;;;;;0.93;0.93;;;18.60;99.90;;;;;;5038899;28;20123;-73
2023/10/03 06:59:54;;;;;;;1.35;1.27;;;18.60;99.90;;;;;;5062510;28;20119;-73
2023/10/03 07:02:20;;;;;;;0.45;0.45;;;18.60;99.90;;;;;;5053696;28;20074;-71
2023/10/03 07:04:47;;;;;;;0.93;0.93;;;18.50;99.90;;;;;;5066518;28;20043;-73
2023/10/03 07:07:13;;;;;;;0.60;0.60;;;18.50;99.90;;;;;;5058391;28;20127;-73
2023/10/03 07:09:39;;;;;;;0.95;0.85;;;18.60;99.90;;;;;;5060431;28;20553;-73
2023/10/03 07:12:08;;;;;;;2.08;1.13;;;18.50;99.90;;;;;;5068959;28;20083;-73
2023/10/03 07:14:37;;;;;;;0.70;0.70;;;18.50;99.90;;;;;;5054017;28;20029;-73
2023/10/03 07:17:03;;;;;;;0.30;0.30;;;18.50;99.90;;;;;;5067715;28;20583;-73
2023/10/03 07:19:30;;;;;;;0.55;0.55;;;18.50;99.90;;;;;;5051853;28;20039;-73
2023/10/03 07:21:57;;;;;;;0.82;0.82;;;18.40;99.90;;;;;;5064637;28;20481;-73
2023/10/03 07:24:24;;;;;;;0.45;0.45;;;18.50;99.90;;;;;;5050779;28;20044;-73
2023/10/03 07:26:51;;;;;;;1.23;1.15;;;18.50;99.90;;;;;;5076539;28;20071;-72
2023/10/03 07:29:17;;;;;;;0.40;0.40;;;18.50;99.90;;;;;;5067863;28;20036;-73
2023/10/03 07:31:43;;;;;;;0.75;0.75;;;18.60;99.90;;;;;;5058113;28;20059;-73
2023/10/03 07:34:09;;;;;;;0.77;0.77;;;18.60;99.90;;;;;;5059317;28;20036;-74
2023/10/03 07:36:36;;;;;;;1.85;1.73;;;18.60;99.90;;;;;;5060235;28;20093;-73
2023/10/03 07:39:03;;;;;;;1.42;1.33;;;18.50;99.90;;;;;;5055473;28;20048;-74
2023/10/03 07:41:29;;;;;;;0.82;0.82;;;18.50;99.90;;;;;;5051829;28;20043;-74
2023/10/03 07:43:54;;;;;;;0.73;0.73;;;18.50;99.90;;;;;;5066212;28;20393;-74
2023/10/03 07:46:25;;;;;;;0.80;0.80;;;18.40;99.90;;;;;;5044176;28;20039;-74
2023/10/03 07:48:54;;;;;;;0.70;0.70;;;18.40;99.90;;;;;;5065651;28;20118;-74
2023/10/03 07:51:29;;;;;;;1.02;0.93;;;18.20;99.90;;;;;;5066458;28;20552;-73
2023/10/03 07:53:56;;;;;;;0.95;0.95;;;18.20;99.90;;;;;;5059759;28;20040;-73
2023/10/03 07:56:38;;;;;;;0.68;0.68;;;18.10;99.90;;;;;;5058240;28;20386;-73
2023/10/03 07:59:04;;;;;;;0.60;0.60;;;18.10;99.90;;;;;;5055764;28;20233;-74
2023/10/03 08:01:30;;;;;;;0.40;0.40;;;18.10;99.90;;;;;;5062787;28;20176;-73
2023/10/03 08:03:59;;;;;;;0.50;0.50;;;18.10;99.90;;;;;;5038220;28;20039;-74
2023/10/03 08:06:37;;;;;;;0.30;0.30;;;18.00;99.90;;;;;;5060746;28;20343;-73
2023/10/03 08:09:06;;;;;;;0.63;0.63;;;18.00;99.90;;;;;;5058583;28;20238;-74
2023/10/03 08:11:35;;;;;;;0.90;0.90;;;18.00;99.90;;;;;;5059781;28;20236;-74
2023/10/03 08:14:17;;;;;;;0.80;0.80;;;18.00;99.90;;;;;;5065221;28;20054;-73
2023/10/03 08:16:46;;;;;;;0.60;0.60;;;17.90;99.90;;;;;;5061071;28;20034;-73
2023/10/03 08:19:26;;;;;;;0.63;0.63;;;17.80;99.90;;;;;;5055496;28;20101;-73
2023/10/03 08:21:53;;;;;;;0.32;0.32;;;17.80;99.90;;;;;;5060324;28;20441;-73
2023/10/03 08:24:28;;;;;;;0.60;0.60;;;17.70;99.90;;;;;;5064142;28;20512;-73
2023/10/03 08:26:58;;;;;;;0.70;0.70;;;17.70;99.90;;;;;;5058524;28;20110;-73
2023/10/03 08:29:25;;;;;;;0.90;0.90;;;17.60;99.90;;;;;;5063903;28;20105;-72
2023/10/03 08:31:59;;;;;;;1.00;0.98;;;17.60;99.90;;;;;;5061100;28;20673;-72
2023/10/03 08:34:29;;;;;;;0.63;0.55;;;17.50;99.90;;;;;;5047940;28;20118;-72
2023/10/03 08:36:58;;;;;;;0.60;0.60;;;17.50;99.90;;;;;;5039979;28;20032;-72
2023/10/03 08:39:25;;;;;;;0.30;0.30;;;17.50;99.90;;;;;;5066812;28;20050;-72
2023/10/03 08:42:13;;;;;;;0.40;0.40;;;17.50;99.90;;;;;;5068598;28;20060;-72
2023/10/03 08:44:49;;;;;;;0.50;0.50;;;17.50;99.90;;;;;;5051122;28;20093;-72
2023/10/03 08:47:23;;;;;;;0.30;0.30;;;17.40;99.90;;;;;;5037392;28;20251;-72
2023/10/03 08:49:56;;;;;;;0.60;0.60;;;17.40;99.90;;;;;;5062127;28;20474;-72
2023/10/03 08:52:39;;;;;;;0.30;0.30;;;17.40;99.90;;;;;;5059806;28;20123;-72
2023/10/03 08:55:14;;;;;;;0.30;0.30;;;17.40;99.90;;;;;;5063087;28;20029;-72
2023/10/03 08:57:40;;;;;;;0.30;0.30;;;17.40;99.90;;;;;;5049911;28;20082;-72
2023/10/03 09:00:09;;;;;;;1.17;0.90;;;17.30;99.90;;;;;;5057538;28;20051;-72
2023/10/03 09:02:45;;;;;;;0.40;0.40;;;17.30;99.90;;;;;;5048820;28;20339;-72
2023/10/03 09:05:19;;;;;;;0.40;0.40;;;17.20;99.90;;;;;;5056538;28;20052;-71
2023/10/03 09:07:49;;;;;;;0.22;0.22;;;17.20;99.90;;;;;;5061427;28;20202;-71
2023/10/03 09:10:22;;;;;;;0.30;0.30;;;17.10;99.90;;;;;;5064209;28;20505;-72
2023/10/03 09:13:14;;;;;;;0.30;0.30;;;17.00;99.90;;;;;;5060086;28;20399;-72
2023/10/03 09:15:42;;;;;;;0.35;0.35;;;17.00;99.90;;;;;;5050166;28;20058;-72
2023/10/03 09:18:10;;;;;;;0.50;0.50;;;17.00;99.90;;;;;;5055044;28;20044;-72
2023/10/03 09:20:36;;;;;;;0.30;0.30;;;17.00;99.90;;;;;;5042927;28;20052;-72
2023/10/03 09:23:06;;;;;;;0.40;0.40;;;17.00;99.90;;;;;;5043117;28;20132;-72
2023/10/03 09:25:39;;;;;;;0.40;0.40;;;17.10;99.90;;;;;;5062168;28;20097;-72
2023/10/03 09:28:06;;;;;;;0.28;0.28;;;17.00;99.90;;;;;;5058260;28;20036;-72
2023/10/03 09:30:37;;;;;;;0.30;0.30;;;17.00;99.90;;;;;;5063127;28;20413;-71
2023/10/03 09:33:10;;;;;;;0.40;0.40;;;17.10;99.90;;;;;;5057883;28;20137;-72
2023/10/03 09:35:39;;;;;;;0.38;0.38;;;17.10;99.90;;;;;;5051575;28;20048;-72
2023/10/03 09:38:08;;;;;;;0.50;0.50;;;17.10;99.90;;;;;;5055576;28;20045;-73
2023/10/03 09:40:49;;;;;;;0.30;0.30;;;17.10;99.90;;;;;;5052402;28;20089;-71
2023/10/03 09:43:19;;;;;;;0.40;0.40;;;17.10;99.90;;;;;;5063581;28;20044;-72
2023/10/03 09:45:47;;;;;;;0.40;0.40;;;17.00;99.90;;;;;;5063208;28;20067;-72
2023/10/03 09:48:14;;;;;;;0.30;0.30;;;16.90;99.90;;;;;;5071145;28;20505;-72
2023/10/03 09:51:05;;;;;;;0.32;0.32;;;16.70;99.90;;;;;;5077905;28;20497;-72
2023/10/03 09:53:32;;;;;;;0.20;0.20;;;16.70;99.90;;;;;;5062714;28;20106;-72
2023/10/03 09:56:00;;;;;;;0.35;0.35;;;16.60;99.90;;;;;;5065452;28;20028;-72
2023/10/03 09:58:31;;;;;;;0.35;0.35;;;16.60;99.90;;;;;;5066416;28;20040;-72
2023/10/03 10:00:58;;;;;;;0.43;0.43;;;16.50;99.90;;;;;;5059726;28;20052;-72
2023/10/03 10:03:37;;;;;;;0.30;0.30;;;16.40;99.90;;;;;;5057260;28;20044;-72
2023/10/03 10:06:12;;;;;;;0.40;0.40;;;16.40;99.90;;;;;;5060345;28;20044;-72
2023/10/03 10:09:13;;;;;;;0.30;0.30;;;16.30;99.90;;;;;;5045371;28;20069;-72
2023/10/03 10:12:21;;;;;;;0.40;0.40;;;16.40;99.90;;;;;;5069073;28;20047;-72
2023/10/03 10:17:51;;;;;;;0.30;0.30;;;16.30;99.90;;;;;;5063088;28;20525;-72
2023/10/03 10:20:17;;;;;;;0.43;0.43;;;16.30;99.90;;;;;;5053013;28;20036;-71
2023/10/03 10:23:03;;;;;;;0.30;0.30;;;16.30;99.90;;;;;;5047482;28;20409;-72
2023/10/03 10:25:31;;;;;;;0.38;0.38;;;16.30;99.90;;;;;;5049210;28;20135;-72
2023/10/03 10:28:07;;;;;;;0.28;0.28;;;16.30;99.90;;;;;;5060870;28;20150;-72
2023/10/03 10:30:38;;;;;;;0.30;0.30;;;16.30;99.90;;;;;;5061793;28;20036;-72
2023/10/03 10:33:16;;;;;;;0.30;0.30;;;16.20;99.90;;;;;;5049830;28;20402;-72
2023/10/03 10:35:55;;;;;;;0.30;0.30;;;16.20;99.90;;;;;;5037953;28;20036;-72
2023/10/03 10:38:30;;;;;;;0.40;0.40;;;16.20;99.90;;;;;;5062626;28;20036;-72
2023/10/03 10:44:13;;;;;;;0.40;0.40;;;16.20;99.90;;;;;;5047486;28;20261;-72
2023/10/03 10:46:47;;;;;;;0.32;0.32;;;16.20;99.90;;;;;;5059295;28;20456;-72
2023/10/03 10:49:31;;;;;;;0.52;0.50;;;16.20;99.90;;;;;;5069763;28;20048;-72
2023/10/03 10:52:01;;;;;;;0.32;0.32;;;16.20;99.90;;;;;;5042459;28;20189;-72
2023/10/03 10:54:28;;;;;;;0.30;0.30;;;16.20;99.90;;;;;;5063723;28;20039;-72
2023/10/03 10:57:03;;;;;;;0.30;0.30;;;16.20;99.90;;;;;;5053696;28;20497;-72
2023/10/03 10:59:31;;;;;;;0.40;0.40;;;16.20;99.90;;;;;;5059308;28;20043;-72
2023/10/03 11:02:00;;;;;;;0.30;0.30;;;16.20;99.90;;;;;;5062325;28;20063;-72
2023/10/03 11:04:28;;;;;;;0.40;0.40;;;16.30;99.90;;;;;;5052530;28;20059;-72
2023/10/03 11:06:54;;;;;;;0.30;0.30;;;16.30;99.90;;;;;;5064384;28;20111;-72
2023/10/03 11:09:21;;;;;;;0.40;0.40;;;16.30;99.90;;;;;;5062815;28;20123;-72
2023/10/03 11:11:47;;;;;;;0.40;0.40;;;16.40;99.90;;;;;;5067198;28;20098;-72
2023/10/03 11:14:31;;;;;;;1.47;1.37;;;16.40;99.90;;;;;;5057486;28;20083;-72
2023/10/03 11:17:01;;;;;;;0.40;0.40;;;16.50;99.90;;;;;;5043586;28;20775;-72
2023/10/03 11:19:30;;;;;;;0.38;0.38;;;16.60;99.90;;;;;;5059073;28;20028;-72
2023/10/03 11:21:56;;;;;;;0.30;0.30;;;16.60;99.90;;;;;;5062576;28;20075;-72
2023/10/03 11:24:23;;;;;;;0.40;0.40;;;16.60;99.90;;;;;;5036501;28;20532;-72
2023/10/03 11:26:53;;;;;;;0.40;0.40;;;16.60;99.90;;;;;;5059513;28;20036;-72
2023/10/03 11:29:40;;;;;;;0.30;0.30;;;16.60;99.90;;;;;;5064594;28;20044;-72
2023/10/03 11:32:20;;;;;;;0.40;0.40;;;16.50;99.90;;;;;;5048208;28;20593;-72
2023/10/03 11:34:48;;;;;;;0.40;0.40;;;16.40;99.90;;;;;;5039618;28;20498;-72
2023/10/03 11:37:44;;;;;;;0.35;0.35;;;16.30;99.90;;;;;;5059926;28;20433;-72
2023/10/03 11:40:15;;;;;;;0.30;0.30;;;16.30;99.90;;;;;;5047363;28;20040;-72
2023/10/03 11:42:47;;;;;;;0.40;0.40;;;16.30;99.90;;;;;;5055112;28;20032;-72
2023/10/03 11:45:23;;;;;;;0.30;0.30;;;16.20;99.90;;;;;;5060267;28;20418;-72
2023/10/03 11:48:11;;;;;;;0.30;0.30;;;16.20;99.90;;;;;;5048407;28;20037;-72
2023/10/03 11:50:40;;;;;;;0.38;0.38;;;16.20;99.90;;;;;;5045075;28;20123;-72
2023/10/03 11:53:10;;;;;;;0.50;0.50;;;16.10;99.90;;;;;;5038881;28;20090;-72
2023/10/03 11:55:36;;;;;;;0.30;0.30;;;16.10;99.90;;;;;;5068900;28;20035;-72
2023/10/03 11:58:05;;;;;;;0.30;0.30;;;16.00;99.90;;;;;;5063373;28;20058;-72
2023/10/03 12:00:31;;;;;;;0.50;0.50;;;16.00;99.90;;;;;;5068116;28;20085;-72
2023/10/03 12:02:57;;;;;;;0.30;0.30;;;16.00;99.90;;;;;;5064669;28;20456;-72
2023/10/03 12:05:23;;;;;;;0.30;0.30;;;16.00;99.90;;;;;;5052791;28;20393;-72
2023/10/03 12:07:50;;;;;;;0.30;0.30;;;16.00;99.90;;;;;;5059936;28;20076;-72
2023/10/03 12:10:17;;;;;;;0.20;0.20;;;16.00;99.90;;;;;;5040019;28;20453;-72
2023/10/03 12:12:43;;;;;;;0.25;0.25;;;16.00;99.90;;;;;;5065502;28;20036;-72
2023/10/03 12:15:13;;;;;;;0.30;0.30;;;16.00;99.90;;;;;;5037502;28;20094;-72
2023/10/03 12:17:47;;;;;;;0.45;0.45;;;16.00;99.90;;;;;;5060023;28;20036;-72
2023/10/03 12:20:16;;;;;;;0.40;0.40;;;16.00;99.90;;;;;;5068734;28;20035;-72
2023/10/03 12:22:50;;;;;;;0.40;0.40;;;16.00;99.90;;;;;;5067989;28;20341;-72
2023/10/03 12:25:18;;;;;;;0.90;0.77;;;15.90;99.90;;;;;;5061290;28;20039;-72
2023/10/03 12:27:44;;;;;;;0.30;0.30;;;15.80;99.90;;;;;;5069298;28;20082;-72
2023/10/03 12:30:12;;;;;;;0.52;0.52;;;15.80;99.90;;;;;;5066869;28;20036;-72
2023/10/03 12:32:40;;;;;;;0.30;0.30;;;15.70;99.90;;;;;;5067398;28;20939;-72
2023/10/03 12:35:07;;;;;;;0.40;0.40;;;15.60;99.90;;;;;;5044987;28;20033;-72
2023/10/03 12:37:34;;;;;;;0.40;0.40;;;15.50;99.90;;;;;;5067562;28;20082;-72
2023/10/03 12:40:04;;;;;;;0.40;0.40;;;15.40;99.90;;;;;;5054916;28;21142;-72
2023/10/03 12:42:33;;;;;;;0.63;0.63;;;15.30;99.90;;;;;;5044598;28;20036;-72
2023/10/03 12:45:03;;;;;;;0.47;0.47;;;15.30;99.90;;;;;;5036123;28;20040;-72
2023/10/03 12:47:29;;;;;;;0.30;0.30;;;15.20;99.90;;;;;;5042077;28;20134;-72
2023/10/03 12:49:59;;;;;;;0.50;0.50;;;15.10;99.90;;;;;;5050163;28;20086;-72
2023/10/03 12:52:25;;;;;;;0.30;0.30;;;15.00;99.90;;;;;;5047332;28;20101;-72
2023/10/03 12:54:51;;;;;;;0.30;0.30;;;15.00;99.90;;;;;;5066654;28;20046;-72
2023/10/03 12:57:17;;;;;;;0.40;0.40;;;15.00;99.90;;;;;;5067811;28;20071;-72
2023/10/03 12:59:49;;;;;;;0.50;0.50;;;14.90;99.90;;;;;;5067524;28;20031;-72
2023/10/03 13:02:17;;;;;;;0.30;0.30;;;15.00;99.90;;;;;;5071155;28;20052;-72
2023/10/03 13:04:43;;;;;;;0.40;0.40;;;15.00;99.90;;;;;;5070245;28;20032;-72
2023/10/03 13:07:09;;;;;;;0.35;0.35;;;15.10;99.90;;;;;;5052371;28;20051;-72